createdAt,value
2023-05-01T00:01:27.491Z,101537.50
2023-05-01T00:03:55.283Z,101550.66
2023-05-01T00:06:23.732Z,101546.88
2023-05-01T00:08:51.601Z,101548.91
2023-05-01T00:11:19.303Z,101546.41
2023-05-01T00:13:47.394Z,101544.41
2023-05-01T00:16:16.874Z,101540.38
2023-05-01T00:18:47.163Z,101539.88
2023-05-01T00:21:14.866Z,101546.53
2023-05-01T00:23:42.953Z,101542.63
2023-05-01T00:26:10.675Z,101535.81
2023-05-01T00:28:38.470Z,101543.53
2023-05-01T00:31:06.586Z,101541.41
2023-05-01T00:33:34.243Z,101537.75
2023-05-01T00:36:03.381Z,101544.28
2023-05-01T00:38:31.721Z,101535.72
2023-05-01T00:40:59.367Z,101538.94
2023-05-01T00:43:27.200Z,101532.63
2023-05-01T00:45:55.367Z,101533.22
2023-05-01T00:48:23.288Z,101531.13
2023-05-01T00:50:52.056Z,101524.94
2023-05-01T00:53:22.653Z,101522.56
2023-05-01T00:55:50.228Z,101519.25
2023-05-01T00:58:19.529Z,101518.28
2023-05-01T01:00:48.396Z,101524.13
2023-05-01T01:03:16.585Z,101526.13
2023-05-01T01:05:51.215Z,101524.22
2023-05-01T01:08:25.620Z,101517.81
2023-05-01T01:10:58.430Z,101514.00
2023-05-01T01:13:31.206Z,101520.78
2023-05-01T01:16:09.531Z,101519.94
2023-05-01T01:18:43.317Z,101515.66
2023-05-01T01:21:18.449Z,101506.78
2023-05-01T01:24:13.720Z,101503.56
2023-05-01T01:27:13.278Z,101496.44
2023-05-01T01:29:52.347Z,101495.38
2023-05-01T01:33:06.051Z,101502.84
2023-05-01T01:35:37.195Z,101500.22
2023-05-01T01:38:11.830Z,101493.69
2023-05-01T01:40:45.119Z,101485.50
2023-05-01T01:43:18.070Z,101490.38
2023-05-01T01:45:51.809Z,101492.13
2023-05-01T01:48:25.867Z,101483.94
2023-05-01T01:50:58.261Z,101482.53
2023-05-01T01:53:28.340Z,101485.00
2023-05-01T01:55:57.398Z,101477.31
2023-05-01T01:58:29.385Z,101477.56
2023-05-01T02:00:59.178Z,101478.41
2023-05-01T02:03:27.915Z,101479.94
2023-05-01T02:05:59.821Z,101484.63
2023-05-01T02:08:31.836Z,101466.59
2023-05-01T02:11:02.479Z,101466.84
2023-05-01T02:13:30.537Z,101468.00
2023-05-01T02:15:59.745Z,101463.16
2023-05-01T02:18:30.457Z,101470.50
2023-05-01T02:21:00.813Z,101462.91
2023-05-01T02:23:30.006Z,101463.97
2023-05-01T02:25:59.756Z,101455.25
2023-05-01T02:28:31.306Z,101455.78
2023-05-01T02:31:00.227Z,101461.44
2023-05-01T02:33:28.249Z,101454.50
2023-05-01T02:35:57.188Z,101458.81
2023-05-01T02:38:27.149Z,101444.25
2023-05-01T02:40:59.237Z,101443.66
2023-05-01T02:43:29.642Z,101449.84
2023-05-01T02:45:59.720Z,101443.97
2023-05-01T02:48:29.502Z,101440.50
2023-05-01T02:50:58.182Z,101441.78
2023-05-01T02:53:27.668Z,101438.16
2023-05-01T02:55:55.944Z,101428.94
2023-05-01T02:58:25.227Z,101435.66
2023-05-01T03:00:52.886Z,101430.59
2023-05-01T03:03:20.625Z,101418.66
2023-05-01T03:05:49.005Z,101417.13
2023-05-01T03:08:17.153Z,101422.44
2023-05-01T03:10:46.238Z,101405.03
2023-05-01T03:13:14.356Z,101409.31
2023-05-01T03:15:42.687Z,101406.72
2023-05-01T03:18:10.373Z,101413.75
2023-05-01T03:20:39.465Z,101407.00
2023-05-01T03:23:07.681Z,101396.09
2023-05-01T03:25:35.951Z,101393.75
2023-05-01T03:28:05.103Z,101399.88
2023-05-01T03:30:34.788Z,101391.59
2023-05-01T03:33:03.201Z,101399.06
2023-05-01T03:35:31.083Z,101388.88
2023-05-01T03:37:58.898Z,101394.78
2023-05-01T03:40:27.783Z,101394.31
2023-05-01T03:42:55.430Z,101390.41
2023-05-01T03:45:24.937Z,101386.69
2023-05-01T03:47:53.519Z,101389.41
2023-05-01T03:50:21.283Z,101399.16
2023-05-01T03:52:49.027Z,101398.09
2023-05-01T03:55:17.351Z,101398.31
2023-05-01T03:57:47.120Z,101397.72
2023-05-01T04:00:15.227Z,101392.78
2023-05-01T04:02:45.489Z,101393.25
2023-05-01T04:05:14.324Z,101392.06
2023-05-01T04:07:42.684Z,101385.53
2023-05-01T04:10:11.286Z,101393.03
2023-05-01T04:12:39.058Z,101387.91
2023-05-01T04:15:08.500Z,101379.75
2023-05-01T04:17:37.884Z,101385.47
2023-05-01T04:20:08.189Z,101390.00
2023-05-01T04:22:36.362Z,101397.31
2023-05-01T04:25:05.174Z,101399.22
2023-05-01T04:27:32.889Z,101397.25
2023-05-01T04:30:00.737Z,101395.13
2023-05-01T04:32:30.083Z,101392.28
2023-05-01T04:34:58.014Z,101387.22
2023-05-01T04:37:27.131Z,101393.00
2023-05-01T04:39:57.051Z,101388.16
2023-05-01T04:42:25.366Z,101383.91
2023-05-01T04:44:53.674Z,101382.84
2023-05-01T04:47:21.321Z,101373.00
2023-05-01T04:49:48.948Z,101378.09
2023-05-01T04:52:17.335Z,101375.84
2023-05-01T04:54:46.411Z,101384.72
2023-05-01T04:57:14.142Z,101384.50
2023-05-01T04:59:42.973Z,101381.78
2023-05-01T05:02:11.047Z,101385.59
2023-05-01T05:04:39.265Z,101379.38
2023-05-01T05:07:07.374Z,101374.06
2023-05-01T05:09:35.452Z,101376.66
2023-05-01T05:12:05.835Z,101379.28
2023-05-01T05:14:33.525Z,101382.09
2023-05-01T05:17:01.317Z,101384.97
2023-05-01T05:19:30.233Z,101376.06
2023-05-01T05:21:58.021Z,101369.31
2023-05-01T05:24:26.037Z,101365.28
2023-05-01T05:26:54.621Z,101371.06
2023-05-01T05:29:23.667Z,101367.84
2023-05-01T05:31:51.341Z,101362.53
2023-05-01T05:34:21.014Z,101362.59
2023-05-01T05:36:48.666Z,101364.25
2023-05-01T05:39:16.375Z,101356.84
2023-05-01T05:41:45.510Z,101356.13
2023-05-01T05:44:13.260Z,101363.31
2023-05-01T05:46:42.753Z,101353.44
2023-05-01T05:49:10.802Z,101355.94
2023-05-01T05:51:38.527Z,101353.28
2023-05-01T05:54:06.339Z,101357.44
2023-05-01T05:56:34.565Z,101358.38
2023-05-01T05:59:04.513Z,101347.19
2023-05-01T06:01:32.333Z,101346.94
2023-05-01T06:04:02.560Z,101344.28
2023-05-01T06:06:31.774Z,101349.94
2023-05-01T06:09:00.603Z,101357.38
2023-05-01T06:11:28.357Z,101350.94
2023-05-01T06:13:57.312Z,101350.78
2023-05-01T06:16:26.022Z,101351.13
2023-05-01T06:18:53.668Z,101346.66
2023-05-01T06:21:22.740Z,101345.88
2023-05-01T06:23:50.897Z,101349.88
2023-05-01T06:26:19.046Z,101352.31
2023-05-01T06:28:47.065Z,101343.66
2023-05-01T06:31:15.381Z,101338.31
2023-05-01T06:33:43.157Z,101339.81
2023-05-01T06:36:10.853Z,101335.34
2023-05-01T06:38:42.542Z,101343.44
2023-05-01T06:41:10.341Z,101342.75
2023-05-01T06:43:38.398Z,101340.25
2023-05-01T06:46:06.112Z,101343.94
2023-05-01T06:48:34.130Z,101341.41
2023-05-01T06:51:02.277Z,101340.03
2023-05-01T06:53:29.909Z,101339.13
2023-05-01T06:55:58.979Z,101335.94
2023-05-01T06:58:27.906Z,101333.28
2023-05-01T07:00:55.777Z,101333.63
2023-05-01T07:03:24.244Z,101339.22
2023-05-01T07:05:52.275Z,101337.38
2023-05-01T07:08:19.989Z,101337.75
2023-05-01T07:10:47.826Z,101337.56
2023-05-01T07:13:17.351Z,101337.97
2023-05-01T07:15:45.306Z,101346.66
2023-05-01T07:18:13.363Z,101340.81
2023-05-01T07:20:42.005Z,101341.41
2023-05-01T07:23:11.860Z,101337.88
2023-05-01T07:25:41.279Z,101336.63
2023-05-01T07:28:09.098Z,101328.69
2023-05-01T07:30:38.848Z,101336.69
2023-05-01T07:33:06.923Z,101324.94
2023-05-01T07:35:34.685Z,101326.03
2023-05-01T07:38:03.585Z,101316.72
2023-05-01T07:40:33.582Z,101317.84
2023-05-01T07:43:01.830Z,101324.72
2023-05-01T07:45:30.112Z,101317.66
2023-05-01T07:47:59.659Z,101319.06
2023-05-01T07:50:27.974Z,101321.03
2023-05-01T07:52:56.010Z,101319.72
2023-05-01T07:55:23.999Z,101319.13
2023-05-01T07:57:52.374Z,101310.63
2023-05-01T08:00:20.548Z,101304.03
2023-05-01T08:02:48.502Z,101306.25
2023-05-01T08:05:18.809Z,101300.19
2023-05-01T08:07:46.543Z,101298.03
2023-05-01T08:10:15.309Z,101292.25
2023-05-01T08:12:43.374Z,101297.47
2023-05-01T08:15:11.226Z,101295.81
2023-05-01T08:17:39.025Z,101287.06
2023-05-01T08:20:09.375Z,101282.91
2023-05-01T08:22:38.624Z,101293.56
2023-05-01T08:25:08.071Z,101288.06
2023-05-01T08:27:36.512Z,101288.03
2023-05-01T08:30:04.859Z,101287.97
2023-05-01T08:32:33.958Z,101293.97
2023-05-01T08:35:01.844Z,101278.81
2023-05-01T08:37:29.528Z,101287.03
2023-05-01T08:40:00.031Z,101288.31
2023-05-01T08:42:27.657Z,101286.66
2023-05-01T08:45:00.840Z,101293.00
2023-05-01T08:47:30.549Z,101288.84
2023-05-01T08:50:01.022Z,101277.53
2023-05-01T08:52:31.392Z,101271.06
2023-05-01T08:55:02.170Z,101267.44
2023-05-01T08:57:31.856Z,101272.94
2023-05-01T09:00:00.201Z,101271.31
2023-05-01T09:02:30.619Z,101273.06
2023-05-01T09:05:01.820Z,101278.38
2023-05-01T09:07:31.275Z,101266.81
2023-05-01T09:10:00.604Z,101271.50
2023-05-01T09:12:29.505Z,101261.44
2023-05-01T09:14:58.343Z,101256.34
2023-05-01T09:17:26.354Z,101248.47
2023-05-01T09:19:54.740Z,101233.34
2023-05-01T09:22:23.048Z,101240.03
2023-05-01T09:24:50.845Z,101240.06
2023-05-01T09:27:20.372Z,101223.41
2023-05-01T09:29:49.498Z,101230.03
2023-05-01T09:32:20.516Z,101215.72
2023-05-01T09:34:49.052Z,101219.88
2023-05-01T09:37:27.981Z,101216.41
2023-05-01T09:40:09.570Z,101215.53
2023-05-01T09:42:41.495Z,101216.53
2023-05-01T09:45:14.235Z,101216.03
2023-05-01T09:47:43.059Z,101211.00
2023-05-01T09:50:12.572Z,101200.44
2023-05-01T09:52:40.445Z,101193.03
2023-05-01T09:55:16.692Z,101189.97
2023-05-01T09:57:48.006Z,101178.25
2023-05-01T10:00:18.552Z,101180.09
2023-05-01T10:02:47.765Z,101187.97
2023-05-01T10:05:16.824Z,101170.09
2023-05-01T10:07:57.902Z,101167.66
2023-05-01T10:10:26.239Z,101173.31
2023-05-01T10:12:55.698Z,101172.44
2023-05-01T10:15:26.747Z,101168.16
2023-05-01T10:17:55.461Z,101161.72
2023-05-01T10:20:24.487Z,101162.44
2023-05-01T10:22:52.389Z,101157.50
2023-05-01T10:25:22.051Z,101162.44
2023-05-01T10:27:53.277Z,101157.09
2023-05-01T10:30:22.794Z,101157.31
2023-05-01T10:32:51.183Z,101148.34
2023-05-01T10:35:22.597Z,101131.59
2023-05-01T10:38:00.153Z,101134.75
2023-05-01T10:40:50.006Z,101138.38
2023-05-01T10:43:22.128Z,101136.97
2023-05-01T10:45:52.272Z,101136.13
2023-05-01T10:48:56.277Z,101127.09
2023-05-01T10:51:27.530Z,101118.75
2023-05-01T10:54:26.009Z,101111.09
2023-05-01T10:56:55.011Z,101099.38
2023-05-01T10:59:22.829Z,101105.78
2023-05-01T11:01:54.409Z,101098.88
2023-05-01T11:04:51.256Z,101090.41
2023-05-01T11:07:20.470Z,101084.47
2023-05-01T11:09:51.219Z,101074.66
2023-05-01T11:12:49.861Z,101078.59
2023-05-01T11:15:27.696Z,101075.34
2023-05-01T11:17:57.566Z,101074.03
2023-05-01T11:20:48.383Z,101053.44
2023-05-01T11:23:23.842Z,101061.28
2023-05-01T11:25:51.815Z,101062.38
2023-05-01T11:28:22.642Z,101058.56
2023-05-01T11:30:51.000Z,101034.53
2023-05-01T11:33:27.480Z,101029.81
2023-05-01T11:36:02.826Z,101034.00
2023-05-01T11:38:30.578Z,101041.34
2023-05-01T11:41:05.303Z,101038.56
2023-05-01T11:43:33.269Z,101038.88
2023-05-01T11:46:04.385Z,101034.50
2023-05-01T11:48:33.938Z,101012.78
2023-05-01T11:51:01.734Z,101011.19
2023-05-01T11:53:30.338Z,101005.84
2023-05-01T11:55:59.453Z,101010.28
2023-05-01T11:58:36.703Z,101018.13
2023-05-01T12:01:04.547Z,101018.94
2023-05-01T12:03:45.025Z,101010.75
2023-05-01T12:06:13.734Z,101006.78
2023-05-01T12:08:46.336Z,100997.81
2023-05-01T12:11:14.509Z,100995.50
2023-05-01T12:13:42.803Z,100987.00
2023-05-01T12:16:11.889Z,100982.34
2023-05-01T12:18:39.699Z,100980.97
2023-05-01T12:21:17.427Z,100977.19
2023-05-01T12:23:45.199Z,100980.66
2023-05-01T12:26:25.403Z,100985.09
2023-05-01T12:29:01.469Z,100968.13
2023-05-01T12:31:30.946Z,100963.47
2023-05-01T12:34:00.141Z,100947.09
2023-05-01T12:36:32.015Z,100958.06
2023-05-01T12:39:01.678Z,100953.63
2023-05-01T12:41:39.709Z,100946.91
2023-05-01T12:44:22.268Z,100947.81
2023-05-01T12:46:57.812Z,100952.09
2023-05-01T12:49:26.459Z,100952.09
2023-05-01T12:51:58.040Z,100940.38
2023-05-01T12:54:28.521Z,100943.66
2023-05-01T12:57:07.044Z,100946.16
2023-05-01T12:59:36.787Z,100935.72
2023-05-01T13:02:06.305Z,100934.59
2023-05-01T13:04:36.202Z,100925.47
2023-05-01T13:07:12.358Z,100919.88
2023-05-01T13:09:40.763Z,100922.66
2023-05-01T13:12:09.844Z,100923.56
2023-05-01T13:14:39.424Z,100917.16
2023-05-01T13:17:09.270Z,100916.34
2023-05-01T13:19:38.254Z,100923.91
2023-05-01T13:22:07.483Z,100916.59
2023-05-01T13:24:38.294Z,100920.66
2023-05-01T13:27:06.485Z,100910.72
2023-05-01T13:29:34.710Z,100903.22
2023-05-01T13:32:04.539Z,100905.91
2023-05-01T13:34:33.948Z,100902.09
2023-05-01T13:37:03.177Z,100895.72
2023-05-01T13:39:32.640Z,100888.72
2023-05-01T13:42:03.774Z,100883.50
2023-05-01T13:44:32.091Z,100884.78
2023-05-01T13:47:04.083Z,100891.19
2023-05-01T13:49:31.980Z,100897.47
2023-05-01T13:51:59.631Z,100872.31
2023-05-01T13:54:28.061Z,100894.00
2023-05-01T13:56:58.161Z,100884.16
2023-05-01T13:59:25.861Z,100870.19
2023-05-01T14:01:54.959Z,100875.13
2023-05-01T14:04:22.685Z,100869.84
2023-05-01T14:06:50.887Z,100867.38
2023-05-01T14:09:19.345Z,100861.72
2023-05-01T14:11:48.850Z,100857.41
2023-05-01T14:14:19.672Z,100854.75
2023-05-01T14:16:49.488Z,100860.00
2023-05-01T14:19:18.362Z,100851.25
2023-05-01T14:21:48.058Z,100834.22
2023-05-01T14:24:18.281Z,100835.38
2023-05-01T14:26:49.195Z,100832.16
2023-05-01T14:29:27.954Z,100844.69
2023-05-01T14:31:57.089Z,100843.09
2023-05-01T14:34:28.635Z,100848.19
2023-05-01T14:36:58.879Z,100843.06
2023-05-01T14:39:27.386Z,100840.94
2023-05-01T14:42:00.641Z,100833.53
2023-05-01T14:44:29.705Z,100834.69
2023-05-01T14:46:59.081Z,100821.09
2023-05-01T14:49:27.327Z,100831.34
2023-05-01T14:51:55.401Z,100824.09
2023-05-01T14:54:23.699Z,100823.97
2023-05-01T14:56:51.379Z,100819.34
2023-05-01T14:59:19.568Z,100826.88
2023-05-01T15:01:49.469Z,100823.53
2023-05-01T15:04:18.785Z,100824.19
2023-05-01T15:06:46.741Z,100824.88
2023-05-01T15:09:14.730Z,100824.88
2023-05-01T15:11:43.120Z,100814.56
2023-05-01T15:14:11.209Z,100814.53
2023-05-01T15:16:38.991Z,100818.56
2023-05-01T15:19:08.484Z,100822.22
2023-05-01T15:21:36.729Z,100816.78
2023-05-01T15:24:05.829Z,100801.03
2023-05-01T15:26:33.493Z,100799.31
2023-05-01T15:29:01.634Z,100807.91
2023-05-01T15:31:30.580Z,100810.06
2023-05-01T15:33:58.946Z,100805.75
2023-05-01T15:36:28.097Z,100802.34
2023-05-01T15:38:56.175Z,100801.63
2023-05-01T15:41:23.924Z,100799.44
2023-05-01T15:43:53.034Z,100788.31
2023-05-01T15:46:23.333Z,100794.44
2023-05-01T15:48:51.330Z,100784.44
2023-05-01T15:51:19.666Z,100788.31
2023-05-01T15:53:49.072Z,100786.22
2023-05-01T15:56:16.787Z,100787.78
2023-05-01T15:58:44.995Z,100779.69
2023-05-01T16:01:13.372Z,100790.16
2023-05-01T16:03:46.744Z,100786.09
2023-05-01T16:06:15.683Z,100776.38
2023-05-01T16:08:43.966Z,100788.03
2023-05-01T16:11:13.834Z,100773.94
2023-05-01T16:13:43.088Z,100772.97
2023-05-01T16:16:11.769Z,100783.84
2023-05-01T16:18:41.823Z,100772.28
2023-05-01T16:21:11.427Z,100776.28
2023-05-01T16:23:40.133Z,100775.09
2023-05-01T16:26:09.073Z,100773.31
2023-05-01T16:28:38.170Z,100780.84
2023-05-01T16:31:23.589Z,100782.81
2023-05-01T16:33:56.556Z,100775.31
2023-05-01T16:36:24.780Z,100777.31
2023-05-01T16:38:53.624Z,100776.53
2023-05-01T16:41:21.932Z,100778.34
2023-05-01T16:43:51.342Z,100762.00
2023-05-01T16:46:20.253Z,100773.94
2023-05-01T16:48:48.583Z,100773.09
2023-05-01T16:51:16.891Z,100777.91
2023-05-01T16:53:44.563Z,100773.31
2023-05-01T16:56:13.210Z,100776.22
2023-05-01T16:58:40.864Z,100775.25
2023-05-01T17:01:10.265Z,100772.69
2023-05-01T17:03:38.126Z,100773.69
2023-05-01T17:06:07.101Z,100773.81
2023-05-01T17:08:35.282Z,100773.97
2023-05-01T17:11:04.586Z,100773.06
2023-05-01T17:13:32.852Z,100763.28
2023-05-01T17:16:01.099Z,100761.34
2023-05-01T17:18:30.170Z,100766.91
2023-05-01T17:20:58.284Z,100766.44
2023-05-01T17:23:28.016Z,100758.28
2023-05-01T17:25:57.216Z,100765.16
2023-05-01T17:28:25.358Z,100758.16
2023-05-01T17:30:53.064Z,100756.72
2023-05-01T17:33:21.058Z,100747.56
2023-05-01T17:35:50.383Z,100745.66
2023-05-01T17:38:18.561Z,100755.63
2023-05-01T17:40:46.206Z,100757.91
2023-05-01T17:43:14.708Z,100757.25
2023-05-01T17:45:44.272Z,100754.50
2023-05-01T17:48:12.605Z,100752.25
2023-05-01T17:50:40.281Z,100753.22
2023-05-01T17:53:09.912Z,100739.38
2023-05-01T17:55:38.905Z,100741.81
2023-05-01T17:58:07.360Z,100740.38
2023-05-01T18:00:35.195Z,100729.56
2023-05-01T18:03:04.316Z,100723.53
2023-05-01T18:05:32.113Z,100716.31
2023-05-01T18:07:59.828Z,100728.22
2023-05-01T18:10:31.480Z,100719.41
2023-05-01T18:12:59.630Z,100728.06
2023-05-01T18:15:27.375Z,100725.16
2023-05-01T18:17:55.507Z,100722.38
2023-05-01T18:20:23.689Z,100722.50
2023-05-01T18:22:52.190Z,100722.66
2023-05-01T18:25:20.001Z,100720.22
2023-05-01T18:27:50.318Z,100714.16
2023-05-01T18:30:18.064Z,100711.03
2023-05-01T18:32:48.277Z,100714.06
2023-05-01T18:35:17.403Z,100712.09
2023-05-01T18:37:47.262Z,100708.50
2023-05-01T18:40:15.090Z,100708.00
2023-05-01T18:42:42.753Z,100716.25
2023-05-01T18:45:13.259Z,100717.19
2023-05-01T18:47:40.835Z,100714.44
2023-05-01T18:50:10.798Z,100718.75
2023-05-01T18:52:38.552Z,100722.59
2023-05-01T18:55:07.558Z,100726.50
2023-05-01T18:57:35.940Z,100723.09
2023-05-01T19:00:04.184Z,100725.66
2023-05-01T19:02:33.352Z,100717.50
2023-05-01T19:05:02.270Z,100712.75
2023-05-01T19:07:30.049Z,100722.81
2023-05-01T19:09:58.285Z,100721.66
2023-05-01T19:12:26.250Z,100722.91
2023-05-01T19:14:54.628Z,100718.00
2023-05-01T19:17:22.504Z,100716.72
2023-05-01T19:19:52.275Z,100702.69
2023-05-01T19:22:19.934Z,100703.75
2023-05-01T19:24:48.807Z,100711.34
2023-05-01T19:27:17.976Z,100715.06
2023-05-01T19:29:46.259Z,100715.16
2023-05-01T19:32:14.201Z,100708.56
2023-05-01T19:34:42.548Z,100706.53
2023-05-01T19:37:11.657Z,100709.22
2023-05-01T19:39:40.445Z,100700.69
2023-05-01T19:42:08.145Z,100701.78
2023-05-01T19:44:35.829Z,100697.09
2023-05-01T19:47:04.707Z,100702.28
2023-05-01T19:49:32.928Z,100706.66
2023-05-01T19:52:01.013Z,100706.88
2023-05-01T19:54:30.117Z,100706.38
2023-05-01T19:56:59.134Z,100708.75
2023-05-01T19:59:26.909Z,100698.53
2023-05-01T20:01:55.207Z,100691.38
2023-05-01T20:04:24.139Z,100695.56
2023-05-01T20:06:52.834Z,100687.59
2023-05-01T20:09:20.567Z,100687.19
2023-05-01T20:11:50.000Z,100683.94
2023-05-01T20:14:17.702Z,100686.75
2023-05-01T20:16:46.525Z,100687.72
2023-05-01T20:19:16.314Z,100683.31
2023-05-01T20:21:44.538Z,100688.63
2023-05-01T20:24:12.246Z,100689.13
2023-05-01T20:26:40.969Z,100688.72
2023-05-01T20:29:10.495Z,100684.94
2023-05-01T20:31:38.384Z,100678.38
2023-05-01T20:34:06.101Z,100676.97
2023-05-01T20:36:34.571Z,100687.38
2023-05-01T20:39:02.227Z,100685.25
2023-05-01T20:41:31.352Z,100680.63
2023-05-01T20:43:59.102Z,100682.06
2023-05-01T20:46:29.507Z,100676.34
2023-05-01T20:48:57.319Z,100681.25
2023-05-01T20:51:27.633Z,100676.13
2023-05-01T20:53:55.267Z,100680.34
2023-05-01T20:56:23.643Z,100693.28
2023-05-01T20:58:51.741Z,100685.53
2023-05-01T21:01:19.610Z,100692.69
2023-05-01T21:03:49.299Z,100687.16
2023-05-01T21:06:17.209Z,100677.88
2023-05-01T21:08:46.051Z,100680.13
2023-05-01T21:11:13.775Z,100681.56
2023-05-01T21:13:41.418Z,100686.03
2023-05-01T21:16:14.882Z,100689.09
2023-05-01T21:18:43.774Z,100690.53
2023-05-01T21:21:15.350Z,100687.47
2023-05-01T21:23:48.266Z,100688.88
2023-05-01T21:26:16.558Z,100684.50
2023-05-01T21:28:45.695Z,100679.38
2023-05-01T21:31:14.829Z,100681.94
2023-05-01T21:33:46.155Z,100684.25
2023-05-01T21:36:18.379Z,100681.59
2023-05-01T21:38:47.331Z,100687.44
2023-05-01T21:41:15.463Z,100679.22
2023-05-01T21:43:43.912Z,100682.44
2023-05-01T21:46:16.495Z,100697.50
2023-05-01T21:48:45.841Z,100690.56
2023-05-01T21:51:14.991Z,100692.50
2023-05-01T21:53:43.531Z,100695.06
2023-05-01T21:56:12.080Z,100694.31
2023-05-01T21:58:40.591Z,100695.19
2023-05-01T22:01:09.327Z,100705.47
2023-05-01T22:03:42.113Z,100699.34
2023-05-01T22:06:09.974Z,100703.75
2023-05-01T22:08:39.075Z,100690.78
2023-05-01T22:11:08.621Z,100700.16
2023-05-01T22:13:36.438Z,100706.56
2023-05-01T22:16:04.862Z,100703.91
2023-05-01T22:18:32.645Z,100695.63
2023-05-01T22:21:01.738Z,100700.03
2023-05-01T22:23:29.454Z,100699.81
2023-05-01T22:26:01.600Z,100696.75
2023-05-01T22:28:29.524Z,100695.13
2023-05-01T22:30:57.236Z,100704.22
2023-05-01T22:33:25.348Z,100697.97
2023-05-01T22:35:53.406Z,100707.34
2023-05-01T22:38:21.077Z,100710.41
2023-05-01T22:40:49.141Z,100708.69
2023-05-01T22:43:18.425Z,100709.28
2023-05-01T22:45:47.502Z,100706.84
2023-05-01T22:48:15.347Z,100706.25
2023-05-01T22:50:44.189Z,100701.31
2023-05-01T22:53:12.011Z,100703.75
2023-05-01T22:55:40.312Z,100703.75
2023-05-01T22:58:08.077Z,100699.97
2023-05-01T23:00:38.071Z,100705.34
2023-05-01T23:03:06.276Z,100704.22
2023-05-01T23:05:35.362Z,100706.63
2023-05-01T23:08:03.201Z,100717.63
2023-05-01T23:10:33.536Z,100721.63
2023-05-01T23:13:01.695Z,100714.88
2023-05-01T23:15:29.579Z,100715.69
2023-05-01T23:17:59.090Z,100715.69
2023-05-01T23:20:26.984Z,100715.91
2023-05-01T23:22:55.185Z,100713.81
2023-05-01T23:25:26.317Z,100709.06
2023-05-01T23:27:57.746Z,100707.75
2023-05-01T23:30:25.679Z,100711.00
2023-05-01T23:32:53.696Z,100705.63
2023-05-01T23:35:25.077Z,100699.00
2023-05-01T23:37:54.125Z,100700.63
2023-05-01T23:40:21.994Z,100696.34
2023-05-01T23:42:50.728Z,100706.91
2023-05-01T23:45:18.685Z,100701.16
2023-05-01T23:47:47.833Z,100704.78
2023-05-01T23:50:15.924Z,100703.47
2023-05-01T23:52:45.679Z,100700.19
2023-05-01T23:55:14.338Z,100697.47
2023-05-01T23:57:42.566Z,100695.84
